createdAt,value
2019-02-28T00:01:46.502Z,69.77
2019-02-28T00:04:13.213Z,71.23
2019-02-28T00:06:45.102Z,69.73
2019-02-28T00:09:25.674Z,76.93
2019-02-28T00:12:26.016Z,72.27
2019-02-28T00:14:59.724Z,72.63
2019-02-28T00:17:27.765Z,75.17
2019-02-28T00:19:58.721Z,76.53
2019-02-28T00:22:27.260Z,80.67
2019-02-28T00:24:55.403Z,76.40
2019-02-28T00:27:23.530Z,73.67
2019-02-28T00:30:56.092Z,77.10
2019-02-28T00:33:26.674Z,76.13
2019-02-28T00:35:54.716Z,73.43
2019-02-28T00:38:22.753Z,78.93
2019-02-28T00:40:51.780Z,73.40
2019-02-28T00:43:25.233Z,75.97
2019-02-28T00:45:57.517Z,79.43
2019-02-28T00:48:25.768Z,75.47
2019-02-28T00:50:54.119Z,75.23
2019-02-28T00:53:26.583Z,69.50
2019-02-28T00:55:59.352Z,75.27
2019-02-28T00:58:31.917Z,75.57
2019-02-28T01:01:00.316Z,71.83
2019-02-28T01:03:28.408Z,72.13
2019-02-28T01:06:09.707Z,74.37
2019-02-28T01:08:55.970Z,70.83
2019-02-28T01:11:33.368Z,71.27
2019-02-28T01:14:07.965Z,67.93
2019-02-28T01:16:36.652Z,67.47
2019-02-28T01:19:10.151Z,68.33
2019-02-28T01:21:50.208Z,67.20
2019-02-28T01:24:19.145Z,66.40
2019-02-28T01:26:47.430Z,65.43
2019-02-28T01:29:15.273Z,67.27
2019-02-28T01:31:43.705Z,63.57
2019-02-28T01:34:12.012Z,63.23
2019-02-28T01:36:49.569Z,61.30
2019-02-28T01:39:20.518Z,60.40
2019-02-28T01:41:49.465Z,65.80
2019-02-28T01:44:17.228Z,57.17
2019-02-28T01:46:45.191Z,60.77
2019-02-28T01:49:14.943Z,60.90
2019-02-28T01:51:43.376Z,62.80
2019-02-28T01:54:27.309Z,59.87
2019-02-28T01:57:01.464Z,59.60
2019-02-28T01:59:30.875Z,58.70
2019-02-28T02:02:05.700Z,63.67
2019-02-28T02:04:35.774Z,59.60
2019-02-28T02:07:03.819Z,56.07
2019-02-28T02:09:34.734Z,58.43
2019-02-28T02:12:02.824Z,58.53
2019-02-28T02:14:37.179Z,55.63
2019-02-28T02:17:09.085Z,60.13
2019-02-28T02:19:37.100Z,55.33
2019-02-28T02:22:09.167Z,54.97
2019-02-28T02:24:35.434Z,57.83
2019-02-28T02:27:04.276Z,54.87
2019-02-28T02:29:36.307Z,61.33
2019-02-28T02:32:37.491Z,51.87
2019-02-28T02:35:14.342Z,50.47
2019-02-28T02:37:42.502Z,57.03
2019-02-28T02:40:13.775Z,50.70
2019-02-28T02:42:49.741Z,57.50
2019-02-28T02:45:17.548Z,55.77
2019-02-28T02:47:53.937Z,53.83
2019-02-28T02:50:22.167Z,52.50
2019-02-28T02:53:05.545Z,53.80
2019-02-28T02:55:27.934Z,51.20
2019-02-28T02:57:52.998Z,52.40
2019-02-28T03:00:30.668Z,50.93
2019-02-28T03:03:01.231Z,54.27
2019-02-28T03:05:34.940Z,52.43
2019-02-28T03:08:00.945Z,52.77
2019-02-28T03:10:51.640Z,56.07
2019-02-28T03:13:23.079Z,49.37
2019-02-28T03:16:10.852Z,45.33
2019-02-28T03:18:41.218Z,48.73
2019-02-28T03:21:17.421Z,48.23
2019-02-28T03:24:02.481Z,48.67
2019-02-28T03:26:30.645Z,46.50
2019-02-28T03:28:58.925Z,39.07
2019-02-28T03:31:27.168Z,45.13
2019-02-28T03:33:55.413Z,44.77
2019-02-28T03:36:23.438Z,47.60
2019-02-28T03:39:03.715Z,44.50
2019-02-28T03:41:52.990Z,44.73
2019-02-28T03:44:47.770Z,44.73
2019-02-28T03:47:41.813Z,46.43
2019-02-28T03:50:24.942Z,49.37
2019-02-28T03:53:19.650Z,44.20
2019-02-28T03:55:45.206Z,47.03
2019-02-28T03:58:29.604Z,45.60
2019-02-28T04:00:57.751Z,45.27
2019-02-28T04:03:25.993Z,42.60
2019-02-28T04:05:54.287Z,40.07
2019-02-28T04:08:32.620Z,47.03
2019-02-28T04:11:00.788Z,46.87
2019-02-28T04:13:38.743Z,43.70
2019-02-28T04:16:09.811Z,46.13
2019-02-28T04:18:44.424Z,45.07
2019-02-28T04:21:13.252Z,43.83
2019-02-28T04:23:50.966Z,39.63
2019-02-28T04:26:40.630Z,42.60
2019-02-28T04:29:14.559Z,44.00
2019-02-28T04:31:51.288Z,42.27
2019-02-28T04:34:22.699Z,41.83
2019-02-28T04:36:54.492Z,37.10
2019-02-28T04:39:25.333Z,32.10
2019-02-28T04:42:01.000Z,37.00
2019-02-28T04:44:28.967Z,36.77
2019-02-28T04:47:07.661Z,42.33
2019-02-28T04:49:40.553Z,34.70
2019-02-28T04:52:11.763Z,36.93
2019-02-28T04:54:48.732Z,36.33
2019-02-28T04:57:20.756Z,40.37
2019-02-28T04:59:49.901Z,34.27
2019-02-28T05:02:20.940Z,36.00
2019-02-28T05:04:54.660Z,34.37
2019-02-28T05:07:22.577Z,34.73
2019-02-28T05:09:52.976Z,43.47
2019-02-28T05:12:22.094Z,38.77
2019-02-28T05:14:55.315Z,38.83
2019-02-28T05:17:25.617Z,43.90
2019-02-28T05:19:55.148Z,39.77
2019-02-28T05:22:35.004Z,36.67
2019-02-28T05:25:06.098Z,36.93
2019-02-28T05:27:36.482Z,36.03
2019-02-28T05:30:18.047Z,34.33
2019-02-28T05:32:51.732Z,43.30
2019-02-28T05:35:30.714Z,41.77
2019-02-28T05:37:58.932Z,39.97
2019-02-28T05:40:29.702Z,37.13
2019-02-28T05:43:09.941Z,37.57
2019-02-28T05:46:11.567Z,43.80
2019-02-28T05:48:54.916Z,36.87
2019-02-28T05:51:27.580Z,32.80
2019-02-28T05:54:47.147Z,39.80
2019-02-28T05:57:21.369Z,38.00
2019-02-28T05:59:54.562Z,36.30
2019-02-28T06:02:23.342Z,37.57
2019-02-28T06:08:00.527Z,37.57
2019-02-28T06:10:39.978Z,36.27
2019-02-28T06:13:08.440Z,38.93
2019-02-28T06:15:37.179Z,35.30
2019-02-28T06:18:12.840Z,38.80
2019-02-28T06:20:43.795Z,34.33
2019-02-28T06:23:14.409Z,34.73
2019-02-28T06:25:42.242Z,35.87
2019-02-28T06:28:18.063Z,33.70
2019-02-28T06:30:46.033Z,36.27
2019-02-28T06:33:17.126Z,38.33
2019-02-28T06:35:44.974Z,33.83
2019-02-28T06:38:13.075Z,35.60
2019-02-28T06:40:41.631Z,34.63
2019-02-28T06:43:11.037Z,37.70
2019-02-28T06:45:38.807Z,32.77
2019-02-28T06:48:09.226Z,40.47
2019-02-28T06:50:37.184Z,35.03
2019-02-28T06:53:07.682Z,38.03
2019-02-28T06:55:37.220Z,32.60
2019-02-28T06:58:06.133Z,31.50
2019-02-28T07:00:33.860Z,32.77
2019-02-28T07:03:03.257Z,32.50
2019-02-28T07:05:30.920Z,35.23
2019-02-28T07:07:59.076Z,33.63
2019-02-28T07:10:26.993Z,35.13
2019-02-28T07:12:57.457Z,35.00
2019-02-28T07:15:30.416Z,35.03
2019-02-28T07:17:58.631Z,33.07
2019-02-28T07:20:27.683Z,31.37
2019-02-28T07:22:55.903Z,31.37
2019-02-28T07:25:24.002Z,35.87
2019-02-28T07:27:52.100Z,36.27
2019-02-28T07:30:23.202Z,31.90
2019-02-28T07:32:51.657Z,31.87
2019-02-28T07:35:23.676Z,33.50
2019-02-28T07:37:54.362Z,36.03
2019-02-28T07:40:21.699Z,32.87
2019-02-28T07:42:49.933Z,29.83
2019-02-28T07:45:20.812Z,31.60
2019-02-28T07:47:52.778Z,33.33
2019-02-28T07:50:19.383Z,33.13
2019-02-28T07:52:49.551Z,29.40
2019-02-28T07:55:18.018Z,33.47
2019-02-28T07:57:56.264Z,34.70
2019-02-28T08:00:24.885Z,32.87
2019-02-28T08:02:54.041Z,37.00
2019-02-28T08:05:22.383Z,36.50
2019-02-28T08:07:52.364Z,35.83
2019-02-28T08:12:59.089Z,32.67
2019-02-28T08:15:27.695Z,35.73
2019-02-28T08:17:55.443Z,31.03
2019-02-28T08:20:23.572Z,34.70
2019-02-28T08:22:56.656Z,35.33
2019-02-28T08:25:24.925Z,33.67
2019-02-28T08:27:58.983Z,33.20
2019-02-28T08:30:24.925Z,37.80
2019-02-28T08:32:53.266Z,36.20
2019-02-28T08:35:22.794Z,35.10
2019-02-28T08:37:55.746Z,34.17
2019-02-28T08:40:20.997Z,33.67
2019-02-28T08:42:49.975Z,33.57
2019-02-28T08:45:18.031Z,34.33
2019-02-28T08:47:45.745Z,37.47
2019-02-28T08:50:19.036Z,35.60
2019-02-28T08:52:48.302Z,35.93
2019-02-28T08:55:16.857Z,40.23
2019-02-28T08:57:44.555Z,35.90
2019-02-28T09:00:15.149Z,36.37
2019-02-28T09:02:42.871Z,36.53
2019-02-28T09:05:11.134Z,36.60
2019-02-28T09:07:39.040Z,35.73
2019-02-28T09:10:11.866Z,40.17
2019-02-28T09:12:37.903Z,34.80
2019-02-28T09:15:06.614Z,38.97
2019-02-28T09:17:34.602Z,36.23
2019-02-28T09:20:02.647Z,38.17
2019-02-28T09:22:30.677Z,34.00
2019-02-28T09:24:58.705Z,38.73
2019-02-28T09:27:26.497Z,38.17
2019-02-28T09:29:54.729Z,37.73
2019-02-28T09:32:23.387Z,39.03
2019-02-28T09:34:53.026Z,37.33
2019-02-28T09:37:20.708Z,39.73
2019-02-28T09:39:51.316Z,40.63
2019-02-28T09:42:18.667Z,42.37
2019-02-28T09:44:47.154Z,36.47
2019-02-28T09:47:14.993Z,38.30
2019-02-28T09:49:44.240Z,40.43
2019-02-28T09:52:12.393Z,40.30
2019-02-28T09:54:51.747Z,37.77
2019-02-28T09:57:20.009Z,40.73
2019-02-28T09:59:47.818Z,37.27
2019-02-28T10:02:15.554Z,43.53
2019-02-28T10:04:43.372Z,38.33
2019-02-28T10:07:11.262Z,38.03
2019-02-28T10:09:40.574Z,40.50
2019-02-28T10:12:09.110Z,42.17
2019-02-28T10:14:39.586Z,41.67
2019-02-28T10:17:07.218Z,38.50
2019-02-28T10:19:44.777Z,43.33
2019-02-28T10:22:04.689Z,42.93
2019-02-28T10:24:33.739Z,41.37
2019-02-28T10:27:03.454Z,40.00
2019-02-28T10:29:31.043Z,39.47
2019-02-28T10:31:58.829Z,38.40
2019-02-28T10:34:29.723Z,37.73
2019-02-28T10:36:57.476Z,38.03
2019-02-28T10:39:25.290Z,44.17
2019-02-28T10:41:53.377Z,44.20
2019-02-28T10:44:21.352Z,42.10
2019-02-28T10:46:50.320Z,41.57
2019-02-28T10:49:21.113Z,39.63
2019-02-28T10:51:50.852Z,40.83
2019-02-28T10:54:18.919Z,42.23
2019-02-28T10:56:46.656Z,43.33
2019-02-28T10:59:16.620Z,40.83
2019-02-28T11:01:45.125Z,42.97
2019-02-28T11:04:13.556Z,45.80
2019-02-28T11:06:41.617Z,41.50
2019-02-28T11:09:18.309Z,43.00
2019-02-28T11:11:47.569Z,40.33
2019-02-28T11:14:16.665Z,42.30
2019-02-28T11:16:47.262Z,42.20
2019-02-28T11:19:18.641Z,41.33
2019-02-28T11:21:44.887Z,39.63
2019-02-28T11:24:12.729Z,41.03
2019-02-28T11:26:41.319Z,45.90
2019-02-28T11:29:10.712Z,47.70
2019-02-28T11:31:38.554Z,43.33
2019-02-28T11:34:06.694Z,40.57
2019-02-28T11:36:34.994Z,40.30
2019-02-28T11:39:09.879Z,47.47
2019-02-28T11:41:41.087Z,40.40
2019-02-28T11:44:09.296Z,43.50
2019-02-28T11:46:39.944Z,44.30
2019-02-28T11:49:10.997Z,46.07
2019-02-28T11:51:38.831Z,43.37
2019-02-28T11:54:06.869Z,44.50
2019-02-28T11:56:34.749Z,45.00
2019-02-28T11:59:04.574Z,46.13
2019-02-28T12:01:34.818Z,46.30
2019-02-28T12:04:02.637Z,45.53
2019-02-28T12:06:30.485Z,46.73
2019-02-28T12:08:58.840Z,44.27
2019-02-28T12:11:28.115Z,47.03
2019-02-28T12:13:56.133Z,46.77
2019-02-28T12:16:24.029Z,43.27
2019-02-28T12:18:54.143Z,45.27
2019-02-28T12:21:22.220Z,43.83
2019-02-28T12:23:50.087Z,43.60
2019-02-28T12:26:21.459Z,41.53
2019-02-28T12:28:49.829Z,38.73
2019-02-28T12:31:17.745Z,40.33
2019-02-28T12:33:49.180Z,39.43
2019-02-28T12:36:20.898Z,41.43
2019-02-28T12:38:49.129Z,36.53
2019-02-28T12:41:17.374Z,34.40
2019-02-28T12:43:48.010Z,36.97
2019-02-28T12:46:17.397Z,36.43
2019-02-28T12:48:57.854Z,38.33
2019-02-28T12:51:26.326Z,42.37
2019-02-28T12:53:56.227Z,39.00
2019-02-28T12:56:25.025Z,38.57
2019-02-28T12:58:52.931Z,36.43
2019-02-28T13:01:20.950Z,36.63
2019-02-28T13:03:57.824Z,45.10
2019-02-28T13:06:25.142Z,40.57
2019-02-28T13:08:57.860Z,48.40
2019-02-28T13:11:25.556Z,40.77
2019-02-28T13:13:59.939Z,42.20
2019-02-28T13:16:30.468Z,42.27
2019-02-28T13:18:59.510Z,39.47
2019-02-28T13:21:31.273Z,41.70
2019-02-28T13:23:59.577Z,41.03
2019-02-28T13:26:30.586Z,44.07
2019-02-28T13:29:01.038Z,46.00
2019-02-28T13:31:28.730Z,41.40
2019-02-28T13:33:56.274Z,44.23
2019-02-28T13:36:24.818Z,43.47
2019-02-28T13:38:54.692Z,44.17
2019-02-28T13:41:26.331Z,44.90
2019-02-28T13:43:54.692Z,46.07
2019-02-28T13:46:21.369Z,44.60
2019-02-28T13:48:50.612Z,50.00
2019-02-28T13:51:18.407Z,48.17
2019-02-28T13:53:46.113Z,47.73
2019-02-28T13:56:14.264Z,45.83
2019-02-28T13:58:41.894Z,48.87
2019-02-28T14:01:09.501Z,48.90
2019-02-28T14:03:37.163Z,50.20
2019-02-28T14:06:05.070Z,54.17
2019-02-28T14:08:32.873Z,52.43
2019-02-28T14:11:00.618Z,55.83
2019-02-28T14:13:30.065Z,55.00
2019-02-28T14:15:58.744Z,53.20
2019-02-28T14:18:26.452Z,51.97
2019-02-28T14:20:54.188Z,55.43
2019-02-28T14:23:22.303Z,56.73
2019-02-28T14:25:50.336Z,54.87
2019-02-28T14:28:17.973Z,55.43
2019-02-28T14:30:46.168Z,52.80
2019-02-28T14:33:16.149Z,52.37
2019-02-28T14:35:44.138Z,54.40
2019-02-28T14:38:11.966Z,53.27
2019-02-28T14:40:40.810Z,51.47
2019-02-28T14:43:08.585Z,52.00
2019-02-28T14:45:39.034Z,49.43
2019-02-28T14:48:13.168Z,53.33
2019-02-28T14:50:41.490Z,53.40
2019-02-28T14:53:14.716Z,53.20
2019-02-28T14:55:45.749Z,52.43
2019-02-28T14:58:14.404Z,53.27
2019-02-28T15:00:43.392Z,51.60
2019-02-28T15:03:15.720Z,55.97
2019-02-28T15:05:43.840Z,49.20
2019-02-28T15:08:16.255Z,47.93
2019-02-28T15:10:48.570Z,45.93
2019-02-28T15:13:23.458Z,51.90
2019-02-28T15:15:54.137Z,52.30
2019-02-28T15:18:23.564Z,44.87
2019-02-28T15:21:07.493Z,47.80
2019-02-28T15:23:35.516Z,44.80
2019-02-28T15:26:04.731Z,42.53
2019-02-28T15:28:32.932Z,43.17
2019-02-28T15:31:01.840Z,45.90
2019-02-28T15:33:57.978Z,43.40
2019-02-28T15:36:26.132Z,45.80
2019-02-28T15:38:53.963Z,51.63
2019-02-28T15:41:22.599Z,43.73
2019-02-28T15:43:59.962Z,45.70
2019-02-28T15:46:29.853Z,50.60
2019-02-28T15:48:58.422Z,51.70
2019-02-28T15:51:29.449Z,43.83
2019-02-28T15:54:12.394Z,45.93
2019-02-28T15:56:51.789Z,47.13
2019-02-28T15:59:26.310Z,48.87
2019-02-28T16:02:24.199Z,47.43
2019-02-28T16:04:53.733Z,48.77
2019-02-28T16:07:22.014Z,46.67
2019-02-28T16:09:54.103Z,49.30
2019-02-28T16:12:22.633Z,50.37
2019-02-28T16:14:51.748Z,52.17
2019-02-28T16:17:19.760Z,45.90
2019-02-28T16:19:50.029Z,50.07
2019-02-28T16:22:26.756Z,48.40
2019-02-28T16:24:54.621Z,44.03
2019-02-28T16:27:25.742Z,50.93
2019-02-28T16:29:56.737Z,51.20
2019-02-28T16:32:24.819Z,47.80
2019-02-28T16:34:55.905Z,49.57
2019-02-28T16:37:23.804Z,46.33
2019-02-28T16:39:51.898Z,45.00
2019-02-28T16:42:23.563Z,49.30
2019-02-28T16:44:51.876Z,48.83
2019-02-28T16:47:21.510Z,46.63
2019-02-28T16:49:49.542Z,49.00
2019-02-28T16:52:17.633Z,48.03
2019-02-28T16:54:46.816Z,41.83
2019-02-28T16:57:14.869Z,46.87
2019-02-28T16:59:42.738Z,47.20
2019-02-28T17:02:33.329Z,47.83
2019-02-28T17:05:01.615Z,51.30
2019-02-28T17:07:29.622Z,50.43
2019-02-28T17:09:58.181Z,50.87
2019-02-28T17:12:52.189Z,46.83
2019-02-28T17:15:24.795Z,54.87
2019-02-28T17:17:56.784Z,41.33
2019-02-28T17:20:24.854Z,51.17
2019-02-28T17:23:06.736Z,52.10
2019-02-28T17:25:34.570Z,48.33
2019-02-28T17:28:28.198Z,52.53
2019-02-28T17:31:17.009Z,48.83
2019-02-28T17:33:47.808Z,51.93
2019-02-28T17:36:25.279Z,52.57
2019-02-28T17:38:59.241Z,52.50
2019-02-28T17:41:27.101Z,52.67
2019-02-28T17:46:34.710Z,44.17
2019-02-28T17:49:38.070Z,47.63
2019-02-28T17:52:20.567Z,51.53
2019-02-28T17:55:27.108Z,47.10
2019-02-28T17:58:29.496Z,48.90
2019-02-28T18:01:51.181Z,54.00
2019-02-28T18:05:13.412Z,53.67
2019-02-28T18:08:18.786Z,48.57
2019-02-28T18:11:22.868Z,50.50
2019-02-28T18:14:52.717Z,52.73
2019-02-28T18:17:56.582Z,50.37
2019-02-28T18:21:12.831Z,52.10
2019-02-28T18:24:20.620Z,55.47
2019-02-28T18:27:33.094Z,57.07
2019-02-28T18:31:00.741Z,52.47
2019-02-28T18:33:28.998Z,52.93
2019-02-28T18:36:09.180Z,52.00
2019-02-28T18:38:37.832Z,53.67
2019-02-28T18:41:17.496Z,53.43
2019-02-28T18:43:45.675Z,52.27
2019-02-28T18:46:14.504Z,61.03
2019-02-28T18:48:51.296Z,52.20
2019-02-28T18:51:23.276Z,51.27
2019-02-28T18:53:51.229Z,58.03
2019-02-28T18:56:19.550Z,55.07
2019-02-28T18:58:49.288Z,52.27
2019-02-28T19:01:17.475Z,53.40
2019-02-28T19:04:03.758Z,54.33
2019-02-28T19:06:31.742Z,51.63
2019-02-28T19:09:04.027Z,53.00
2019-02-28T19:11:32.047Z,53.33
2019-02-28T19:13:59.748Z,47.17
2019-02-28T19:16:38.434Z,52.37
2019-02-28T19:19:14.850Z,49.93
2019-02-28T19:21:46.665Z,48.13
2019-02-28T19:24:18.361Z,49.63
2019-02-28T19:26:48.566Z,52.50
2019-02-28T19:29:18.660Z,55.90
2019-02-28T19:31:53.735Z,43.23
2019-02-28T19:34:22.345Z,31.00
2019-02-28T19:36:59.389Z,25.90
2019-02-28T19:39:29.797Z,27.57
2019-02-28T19:41:58.562Z,15.70
2019-02-28T19:44:35.356Z,11.50
2019-02-28T19:47:37.285Z,10.60
2019-02-28T19:50:06.832Z,7.97
2019-02-28T19:52:41.209Z,7.30
2019-02-28T19:55:18.063Z,3.47
2019-02-28T19:57:53.805Z,4.13
2019-02-28T20:00:23.701Z,2.20
2019-02-28T20:02:51.968Z,2.23
2019-02-28T20:05:20.100Z,2.30
2019-02-28T20:07:53.716Z,2.50
2019-02-28T20:10:47.184Z,3.77
2019-02-28T20:13:15.836Z,5.63
2019-02-28T20:15:54.099Z,2.93
2019-02-28T20:18:26.177Z,3.57
2019-02-28T20:20:55.899Z,4.23
2019-02-28T20:23:28.954Z,3.73
2019-02-28T20:26:03.132Z,3.37
2019-02-28T20:28:38.750Z,5.20
2019-02-28T20:31:07.471Z,4.17
2019-02-28T20:33:44.261Z,3.83
2019-02-28T20:36:21.557Z,5.33
2019-02-28T20:38:52.747Z,2.93
2019-02-28T20:41:22.826Z,3.97
2019-02-28T20:43:57.544Z,3.87
2019-02-28T20:46:30.906Z,3.97
2019-02-28T20:49:01.017Z,3.33
2019-02-28T20:51:29.972Z,6.23
2019-02-28T20:54:03.492Z,3.27
2019-02-28T20:56:33.375Z,4.77
2019-02-28T20:59:01.213Z,2.87
2019-02-28T21:01:28.888Z,3.10
2019-02-28T21:03:57.084Z,3.63
2019-02-28T21:06:25.596Z,4.83
2019-02-28T21:08:54.884Z,3.47
2019-02-28T21:11:25.388Z,4.63
2019-02-28T21:13:53.892Z,5.40
2019-02-28T21:16:25.177Z,5.03
2019-02-28T21:19:03.800Z,6.07
2019-02-28T21:21:33.838Z,4.77
2019-02-28T21:24:19.300Z,4.50
2019-02-28T21:29:45.418Z,4.97
2019-02-28T21:32:25.212Z,5.90
2019-02-28T21:34:54.788Z,2.80
2019-02-28T21:37:28.041Z,4.50
2019-02-28T21:39:58.392Z,4.80
2019-02-28T21:42:26.490Z,4.33
2019-02-28T21:44:56.040Z,4.33
2019-02-28T21:47:29.058Z,4.77
2019-02-28T21:49:54.702Z,6.40
2019-02-28T21:52:32.646Z,6.23
2019-02-28T21:55:01.145Z,5.73
2019-02-28T21:57:30.939Z,6.93
2019-02-28T21:59:59.729Z,9.37
2019-02-28T22:02:30.883Z,7.80
2019-02-28T22:05:11.886Z,8.47
2019-02-28T22:07:50.485Z,8.73
2019-02-28T22:10:21.057Z,10.53
2019-02-28T22:12:59.596Z,10.20
2019-02-28T22:15:27.043Z,12.80
2019-02-28T22:17:55.333Z,13.13
2019-02-28T22:20:26.913Z,14.07
2019-02-28T22:22:58.441Z,17.33
2019-02-28T22:25:26.608Z,19.00
2019-02-28T22:28:14.053Z,30.23
2019-02-28T22:31:03.729Z,26.13
2019-02-28T22:33:54.109Z,28.50
2019-02-28T22:36:47.365Z,31.67
2019-02-28T22:39:22.340Z,37.13
2019-02-28T22:42:01.008Z,38.33
2019-02-28T22:44:50.246Z,47.03
2019-02-28T22:47:32.688Z,47.87
2019-02-28T22:50:10.340Z,51.93
2019-02-28T22:52:40.513Z,57.47
2019-02-28T22:55:10.749Z,57.30
2019-02-28T22:57:39.369Z,54.93
2019-02-28T23:00:17.550Z,56.93
2019-02-28T23:02:53.330Z,55.10
2019-02-28T23:05:21.523Z,51.30
2019-02-28T23:07:50.904Z,52.67
2019-02-28T23:10:22.990Z,46.70
2019-02-28T23:12:51.031Z,52.20
2019-02-28T23:15:19.192Z,52.90
2019-02-28T23:17:51.725Z,55.20
2019-02-28T23:20:22.670Z,50.40
2019-02-28T23:22:53.592Z,56.70
2019-02-28T23:25:27.326Z,57.53
2019-02-28T23:28:08.797Z,57.23
2019-02-28T23:31:35.844Z,58.47
2019-02-28T23:34:19.521Z,58.27
2019-02-28T23:36:51.491Z,63.43
2019-02-28T23:39:20.179Z,60.47
2019-02-28T23:41:48.060Z,68.70
2019-02-28T23:44:16.184Z,63.07
2019-02-28T23:46:44.167Z,57.30
2019-02-28T23:49:21.532Z,60.50
2019-02-28T23:51:52.220Z,71.23
2019-02-28T23:54:26.351Z,65.00
2019-02-28T23:56:58.552Z,60.57
2019-02-28T23:59:32.951Z,62.83
